createdAt,value
2022-12-03T00:01:50.638Z,0.60
2022-12-03T00:04:17.762Z,0.60
2022-12-03T00:06:44.836Z,0.50
2022-12-03T00:09:12.001Z,0.50
2022-12-03T00:11:39.088Z,0.50
2022-12-03T00:14:06.193Z,0.40
2022-12-03T00:16:33.423Z,0.50
2022-12-03T00:19:00.488Z,0.50
2022-12-03T00:21:27.487Z,0.40
2022-12-03T00:23:54.516Z,0.40
2022-12-03T00:26:21.555Z,0.40
2022-12-03T00:28:48.942Z,0.40
2022-12-03T00:31:16.151Z,0.30
2022-12-03T00:33:43.196Z,0.30
2022-12-03T00:36:10.456Z,0.40
2022-12-03T00:38:37.474Z,0.40
2022-12-03T00:41:04.619Z,0.30
2022-12-03T00:43:31.673Z,0.30
2022-12-03T00:45:58.821Z,0.40
2022-12-03T00:48:26.131Z,0.30
2022-12-03T00:50:53.167Z,0.50
2022-12-03T00:53:20.269Z,0.50
2022-12-03T00:55:47.430Z,0.40
2022-12-03T00:58:14.430Z,0.50
2022-12-03T01:00:41.540Z,0.50
2022-12-03T01:03:08.552Z,0.60
2022-12-03T01:05:35.609Z,0.70
2022-12-03T01:08:02.735Z,0.60
2022-12-03T01:10:29.828Z,0.60
2022-12-03T01:12:56.957Z,0.60
2022-12-03T01:15:24.020Z,0.80
2022-12-03T01:17:51.066Z,1.00
2022-12-03T01:20:18.237Z,1.00
2022-12-03T01:22:45.244Z,1.10
2022-12-03T01:25:13.324Z,1.10
2022-12-03T01:27:40.423Z,1.20
2022-12-03T01:30:08.770Z,1.30
2022-12-03T01:32:35.813Z,1.40
2022-12-03T01:35:02.937Z,1.60
2022-12-03T01:37:29.998Z,1.70
2022-12-03T01:39:57.226Z,1.70
2022-12-03T01:42:30.442Z,1.70
2022-12-03T01:44:59.131Z,1.80
2022-12-03T01:47:34.757Z,1.80
2022-12-03T01:50:08.624Z,1.80
2022-12-03T01:52:38.674Z,1.90
2022-12-03T01:55:11.625Z,1.90
2022-12-03T01:57:43.408Z,2.00
2022-12-03T02:00:14.668Z,2.00
2022-12-03T02:02:41.975Z,2.00
2022-12-03T02:05:22.510Z,2.00
2022-12-03T02:07:50.431Z,2.00
2022-12-03T02:10:20.802Z,2.10
2022-12-03T02:13:19.103Z,2.20
2022-12-03T02:15:46.419Z,2.20
2022-12-03T02:18:13.475Z,2.10
2022-12-03T02:20:53.321Z,2.20
2022-12-03T02:24:12.611Z,2.00
2022-12-03T02:26:39.657Z,2.10
2022-12-03T02:29:06.731Z,2.00
2022-12-03T02:31:33.855Z,1.90
2022-12-03T02:34:06.717Z,1.90
2022-12-03T02:36:35.173Z,2.00
2022-12-03T02:39:02.700Z,2.10
2022-12-03T02:41:48.780Z,2.00
2022-12-03T02:44:15.948Z,2.00
2022-12-03T02:46:43.084Z,2.10
2022-12-03T02:49:10.287Z,2.10
2022-12-03T02:51:38.152Z,2.10
2022-12-03T02:54:05.247Z,2.10
2022-12-03T02:56:33.363Z,2.20
2022-12-03T02:59:03.289Z,2.20
2022-12-03T03:01:30.487Z,2.20
2022-12-03T03:03:58.653Z,2.20
2022-12-03T03:06:25.966Z,2.20
2022-12-03T03:08:53.122Z,2.20
2022-12-03T03:11:20.276Z,2.30
2022-12-03T03:13:47.702Z,2.30
2022-12-03T03:16:14.837Z,2.30
2022-12-03T03:18:42.147Z,2.30
2022-12-03T03:21:09.318Z,2.30
2022-12-03T03:23:36.376Z,2.30
2022-12-03T03:26:07.359Z,2.30
2022-12-03T03:28:44.127Z,2.30
2022-12-03T03:31:14.064Z,2.30
2022-12-03T03:33:43.378Z,2.30
2022-12-03T03:36:10.844Z,2.30
2022-12-03T03:38:39.041Z,2.30
2022-12-03T03:41:07.883Z,2.30
2022-12-03T03:43:36.906Z,2.20
2022-12-03T03:46:05.470Z,2.30
2022-12-03T03:48:34.608Z,2.30
2022-12-03T03:51:04.246Z,2.30
2022-12-03T03:53:31.393Z,2.20
2022-12-03T03:55:58.421Z,2.20
2022-12-03T03:58:25.500Z,2.30
2022-12-03T04:00:52.745Z,2.20
2022-12-03T04:03:19.954Z,2.20
2022-12-03T04:05:47.440Z,2.20
2022-12-03T04:08:14.522Z,2.20
2022-12-03T04:11:00.113Z,2.20
2022-12-03T04:13:27.210Z,2.30
2022-12-03T04:15:54.178Z,2.30
2022-12-03T04:18:40.019Z,2.30
2022-12-03T04:21:25.480Z,2.30
2022-12-03T04:23:52.604Z,2.30
2022-12-03T04:26:38.519Z,2.30
2022-12-03T04:29:05.780Z,2.40
2022-12-03T04:31:51.321Z,2.30
2022-12-03T04:34:36.670Z,2.30
2022-12-03T04:37:03.755Z,2.30
2022-12-03T04:39:31.106Z,2.30
2022-12-03T04:41:58.194Z,2.30
2022-12-03T04:44:34.055Z,2.30
2022-12-03T04:47:14.597Z,2.30
2022-12-03T04:49:43.721Z,2.30
2022-12-03T04:52:13.339Z,2.40
2022-12-03T04:54:41.261Z,2.40
2022-12-03T04:57:09.188Z,2.30
2022-12-03T04:59:37.040Z,2.30
2022-12-03T05:02:05.461Z,2.30
2022-12-03T05:04:33.017Z,2.30
2022-12-03T05:07:00.101Z,2.30
2022-12-03T05:09:27.138Z,2.40
2022-12-03T05:11:54.212Z,2.40
2022-12-03T05:14:21.266Z,2.40
2022-12-03T05:16:48.363Z,2.30
2022-12-03T05:19:15.547Z,2.30
2022-12-03T05:21:42.819Z,2.30
2022-12-03T05:24:09.870Z,2.30
2022-12-03T05:26:36.866Z,2.30
2022-12-03T05:29:04.000Z,2.30
2022-12-03T05:31:31.116Z,2.30
2022-12-03T05:33:58.172Z,2.30
2022-12-03T05:36:25.683Z,2.30
2022-12-03T05:38:52.745Z,2.30
2022-12-03T05:41:38.563Z,2.30
2022-12-03T05:44:05.669Z,2.30
2022-12-03T05:46:33.142Z,2.30
2022-12-03T05:49:00.280Z,2.40
2022-12-03T05:51:27.585Z,2.40
2022-12-03T05:53:54.625Z,2.30
2022-12-03T05:56:21.661Z,2.30
2022-12-03T05:58:49.439Z,2.30
2022-12-03T06:01:16.731Z,2.40
2022-12-03T06:03:43.905Z,2.40
2022-12-03T06:06:11.113Z,2.30
2022-12-03T06:08:38.138Z,2.40
2022-12-03T06:11:05.321Z,2.40
2022-12-03T06:13:32.343Z,2.50
2022-12-03T06:15:59.463Z,2.40
2022-12-03T06:18:26.589Z,2.40
2022-12-03T06:20:53.702Z,2.40
2022-12-03T06:23:20.736Z,2.40
2022-12-03T06:25:47.786Z,2.40
2022-12-03T06:28:14.824Z,2.40
2022-12-03T06:30:41.944Z,2.40
2022-12-03T06:33:08.943Z,2.40
2022-12-03T06:35:35.985Z,2.30
2022-12-03T06:38:03.113Z,2.40
2022-12-03T06:40:30.145Z,2.40
2022-12-03T06:42:57.186Z,2.40
2022-12-03T06:45:24.197Z,2.40
2022-12-03T06:47:51.240Z,2.40
2022-12-03T06:50:18.382Z,2.40
2022-12-03T06:52:45.478Z,2.40
2022-12-03T06:55:12.756Z,2.40
2022-12-03T06:57:39.795Z,2.30
2022-12-03T07:00:08.949Z,2.30
2022-12-03T07:02:36.270Z,2.40
2022-12-03T07:05:04.005Z,2.40
2022-12-03T07:07:31.923Z,2.50
2022-12-03T07:09:59.191Z,2.50
2022-12-03T07:12:26.270Z,2.50
2022-12-03T07:14:53.728Z,2.50
2022-12-03T07:17:21.157Z,2.50
2022-12-03T07:19:48.238Z,2.50
2022-12-03T07:22:15.420Z,2.30
2022-12-03T07:24:42.725Z,2.40
2022-12-03T07:27:09.768Z,2.40
2022-12-03T07:29:36.894Z,2.40
2022-12-03T07:32:04.016Z,2.40
2022-12-03T07:34:31.085Z,2.50
2022-12-03T07:36:58.610Z,2.40
2022-12-03T07:39:25.694Z,2.40
2022-12-03T07:41:52.834Z,2.40
2022-12-03T07:44:19.944Z,2.40
2022-12-03T07:46:47.072Z,2.40
2022-12-03T07:49:14.394Z,2.50
2022-12-03T07:51:41.494Z,2.50
2022-12-03T07:54:08.665Z,2.60
2022-12-03T07:56:36.091Z,2.60
2022-12-03T07:59:03.146Z,2.50
2022-12-03T08:01:30.186Z,2.50
2022-12-03T08:03:57.275Z,2.50
2022-12-03T08:06:24.349Z,2.60
2022-12-03T08:08:51.365Z,2.70
2022-12-03T08:11:18.433Z,2.50
2022-12-03T08:13:45.479Z,2.50
2022-12-03T08:16:21.642Z,2.50
2022-12-03T08:18:50.399Z,2.50
2022-12-03T08:21:19.764Z,2.50
2022-12-03T08:23:46.871Z,2.50
2022-12-03T08:26:25.657Z,2.50
2022-12-03T08:28:53.104Z,2.50
2022-12-03T08:31:32.697Z,2.50
2022-12-03T08:34:24.066Z,2.50
2022-12-03T08:37:01.877Z,2.50
2022-12-03T08:39:44.961Z,2.50
2022-12-03T08:42:44.298Z,2.50
2022-12-03T08:45:42.040Z,2.40
2022-12-03T08:48:37.717Z,2.40
2022-12-03T08:51:23.989Z,2.50
2022-12-03T08:53:59.686Z,2.30
2022-12-03T08:56:31.004Z,2.40
2022-12-03T08:59:14.522Z,2.40
2022-12-03T09:01:44.169Z,2.40
2022-12-03T09:04:44.497Z,2.40
2022-12-03T09:07:11.597Z,2.30
2022-12-03T09:09:38.704Z,2.40
2022-12-03T09:12:06.023Z,2.50
2022-12-03T09:14:33.138Z,2.50
2022-12-03T09:17:00.342Z,2.50
2022-12-03T09:19:31.002Z,2.50
2022-12-03T09:21:58.436Z,2.50
2022-12-03T09:24:25.559Z,2.60
2022-12-03T09:26:52.775Z,2.60
2022-12-03T09:29:19.971Z,2.50
2022-12-03T09:31:47.242Z,2.60
2022-12-03T09:34:14.334Z,2.70
2022-12-03T09:36:41.436Z,2.60
2022-12-03T09:39:08.451Z,2.60
2022-12-03T09:41:35.787Z,2.70
2022-12-03T09:44:04.880Z,2.60
2022-12-03T09:46:47.579Z,2.70
2022-12-03T09:49:17.767Z,2.70
2022-12-03T09:51:45.859Z,2.70
2022-12-03T09:54:23.907Z,2.80
2022-12-03T09:56:51.699Z,2.80
2022-12-03T09:59:19.204Z,2.90
2022-12-03T10:01:46.635Z,2.80
2022-12-03T10:04:13.954Z,2.80
2022-12-03T10:06:45.807Z,2.80
2022-12-03T10:09:24.028Z,2.80
2022-12-03T10:11:51.252Z,2.80
2022-12-03T10:14:19.874Z,2.90
2022-12-03T10:16:47.317Z,2.90
2022-12-03T10:19:26.291Z,2.80
2022-12-03T10:21:53.669Z,2.80
2022-12-03T10:24:36.081Z,2.90
2022-12-03T10:27:24.627Z,2.90
2022-12-03T10:29:59.979Z,3.00
2022-12-03T10:32:39.227Z,3.00
2022-12-03T10:35:12.392Z,3.00
2022-12-03T10:38:00.886Z,3.00
2022-12-03T10:40:39.270Z,3.00
2022-12-03T10:43:24.275Z,3.10
2022-12-03T10:46:23.834Z,3.10
2022-12-03T10:49:19.260Z,3.20
2022-12-03T10:51:47.824Z,3.30
2022-12-03T10:54:21.655Z,3.20
2022-12-03T10:56:50.760Z,3.20
2022-12-03T10:59:21.902Z,3.10
2022-12-03T11:01:49.639Z,3.20
2022-12-03T11:04:23.487Z,3.10
2022-12-03T11:06:51.123Z,3.20
2022-12-03T11:09:26.849Z,3.30
2022-12-03T11:11:54.260Z,3.30
2022-12-03T11:15:09.278Z,3.30
2022-12-03T11:17:50.647Z,3.10
2022-12-03T11:21:07.069Z,3.10
2022-12-03T11:24:16.524Z,3.10
2022-12-03T11:27:08.011Z,3.10
2022-12-03T11:30:10.741Z,3.00
2022-12-03T11:33:04.009Z,3.00
2022-12-03T11:36:42.048Z,3.10
2022-12-03T11:39:10.767Z,3.10
2022-12-03T11:41:37.816Z,3.00
2022-12-03T11:44:31.812Z,3.00
2022-12-03T11:47:00.515Z,3.00
2022-12-03T11:49:39.464Z,3.10
2022-12-03T11:52:20.328Z,3.20
2022-12-03T11:54:52.031Z,3.20
2022-12-03T11:57:31.756Z,3.30
2022-12-03T12:00:01.815Z,3.30
2022-12-03T12:02:39.042Z,3.20
2022-12-03T12:05:28.078Z,3.20
2022-12-03T12:07:55.846Z,3.20
2022-12-03T12:10:43.550Z,3.20
2022-12-03T12:13:50.746Z,3.20
2022-12-03T12:16:51.140Z,3.20
2022-12-03T12:19:42.671Z,3.10
2022-12-03T12:22:32.927Z,3.10
2022-12-03T12:25:02.470Z,3.10
2022-12-03T12:27:39.406Z,3.00
2022-12-03T12:30:15.014Z,2.90
2022-12-03T12:32:48.604Z,2.90
2022-12-03T12:35:21.644Z,3.00
2022-12-03T12:38:13.922Z,3.00
2022-12-03T12:40:43.201Z,3.00
2022-12-03T12:43:27.668Z,3.00
2022-12-03T12:45:56.821Z,3.10
2022-12-03T12:48:28.720Z,3.20
2022-12-03T12:51:14.163Z,3.30
2022-12-03T12:53:42.991Z,3.30
2022-12-03T12:56:31.122Z,3.30
2022-12-03T12:59:16.046Z,3.40
2022-12-03T13:01:44.821Z,3.30
2022-12-03T13:04:17.736Z,3.40
2022-12-03T13:06:47.874Z,3.30
2022-12-03T13:09:18.512Z,3.30
2022-12-03T13:11:53.592Z,3.30
2022-12-03T13:14:31.928Z,3.40
2022-12-03T13:17:01.122Z,3.30
2022-12-03T13:19:30.724Z,3.30
2022-12-03T13:22:01.552Z,3.40
2022-12-03T13:24:42.795Z,3.40
2022-12-03T13:27:28.712Z,3.60
2022-12-03T13:30:16.855Z,3.50
2022-12-03T13:32:44.120Z,3.50
2022-12-03T13:35:26.733Z,3.50
2022-12-03T13:37:53.928Z,3.40
2022-12-03T13:40:35.057Z,3.40
2022-12-03T13:43:12.315Z,3.40
2022-12-03T13:45:40.314Z,3.40
2022-12-03T13:48:25.350Z,3.40
2022-12-03T13:50:54.214Z,3.50
2022-12-03T13:53:38.640Z,3.50
2022-12-03T13:56:29.471Z,3.50
2022-12-03T13:58:59.435Z,3.50
2022-12-03T14:01:29.615Z,3.50
2022-12-03T14:03:56.891Z,3.60
2022-12-03T14:06:23.947Z,3.60
2022-12-03T14:08:51.564Z,3.50
2022-12-03T14:11:37.163Z,3.60
2022-12-03T14:14:04.296Z,3.50
2022-12-03T14:16:31.537Z,3.60
2022-12-03T14:18:58.648Z,3.60
2022-12-03T14:21:25.679Z,3.70
2022-12-03T14:23:52.786Z,3.70
2022-12-03T14:26:19.862Z,3.70
2022-12-03T14:28:46.991Z,3.50
2022-12-03T14:31:14.051Z,3.50
2022-12-03T14:33:41.443Z,3.60
2022-12-03T14:36:09.389Z,3.50
2022-12-03T14:38:36.517Z,3.50
2022-12-03T14:41:03.874Z,3.50
2022-12-03T14:43:30.911Z,3.60
2022-12-03T14:45:57.973Z,3.50
2022-12-03T14:48:25.004Z,3.50
2022-12-03T14:50:52.071Z,3.60
2022-12-03T14:53:24.096Z,3.50
2022-12-03T14:55:55.954Z,3.40
2022-12-03T14:58:22.984Z,3.50
2022-12-03T15:00:50.121Z,3.50
2022-12-03T15:03:17.226Z,3.50
2022-12-03T15:05:44.271Z,3.60
2022-12-03T15:08:11.419Z,3.50
2022-12-03T15:10:38.585Z,3.50
2022-12-03T15:13:05.616Z,3.50
2022-12-03T15:15:32.635Z,3.50
2022-12-03T15:17:59.802Z,3.60
2022-12-03T15:20:26.832Z,3.50
2022-12-03T15:22:53.875Z,3.50
2022-12-03T15:25:25.566Z,3.50
2022-12-03T15:27:52.825Z,3.50
2022-12-03T15:30:20.842Z,3.40
2022-12-03T15:32:48.206Z,3.40
2022-12-03T15:35:18.554Z,3.40
2022-12-03T15:37:46.001Z,3.50
2022-12-03T15:40:13.481Z,3.50
2022-12-03T15:42:40.550Z,3.50
2022-12-03T15:45:13.450Z,3.50
2022-12-03T15:47:42.248Z,3.50
2022-12-03T15:50:09.803Z,3.40
2022-12-03T15:52:37.010Z,3.50
2022-12-03T15:55:04.428Z,3.40
2022-12-03T15:57:31.605Z,3.50
2022-12-03T15:59:58.812Z,3.50
2022-12-03T16:02:26.359Z,3.40
2022-12-03T16:04:53.415Z,3.30
2022-12-03T16:07:20.522Z,3.30
2022-12-03T16:09:47.628Z,3.40
2022-12-03T16:12:14.644Z,3.30
2022-12-03T16:14:41.658Z,3.20
2022-12-03T16:17:08.853Z,3.30
2022-12-03T16:19:36.426Z,3.20
2022-12-03T16:22:03.846Z,3.30
2022-12-03T16:24:30.860Z,3.20
2022-12-03T16:26:58.002Z,3.20
2022-12-03T16:29:25.158Z,3.30
2022-12-03T16:31:52.285Z,3.30
2022-12-03T16:34:19.320Z,3.30
2022-12-03T16:36:47.600Z,3.20
2022-12-03T16:39:16.708Z,3.20
2022-12-03T16:41:44.215Z,3.20
2022-12-03T16:44:20.122Z,3.10
2022-12-03T16:46:47.424Z,3.10
2022-12-03T16:49:14.690Z,3.20
2022-12-03T16:51:41.768Z,3.10
2022-12-03T16:54:08.845Z,3.10
2022-12-03T16:56:35.947Z,3.10
2022-12-03T16:59:03.037Z,3.20
2022-12-03T17:01:30.336Z,3.10
2022-12-03T17:03:57.481Z,3.10
2022-12-03T17:06:24.587Z,3.10
2022-12-03T17:08:51.619Z,3.20
2022-12-03T17:11:18.702Z,3.10
2022-12-03T17:13:45.801Z,3.10
2022-12-03T17:16:12.969Z,3.10
2022-12-03T17:18:40.102Z,3.10
2022-12-03T17:21:07.173Z,3.20
2022-12-03T17:23:34.233Z,3.10
2022-12-03T17:26:01.286Z,3.00
2022-12-03T17:28:28.334Z,3.10
2022-12-03T17:30:58.140Z,3.00
2022-12-03T17:33:25.439Z,3.10
2022-12-03T17:35:52.481Z,3.00
2022-12-03T17:38:19.549Z,3.00
2022-12-03T17:40:46.534Z,2.90
2022-12-03T17:43:13.675Z,2.90
2022-12-03T17:45:41.758Z,2.90
2022-12-03T17:48:08.896Z,2.80
2022-12-03T17:50:36.187Z,2.80
2022-12-03T17:53:05.479Z,2.80
2022-12-03T17:55:39.797Z,2.80
2022-12-03T17:58:09.987Z,2.80
2022-12-03T18:00:37.043Z,2.80
2022-12-03T18:03:04.218Z,2.90
2022-12-03T18:05:31.252Z,2.90
2022-12-03T18:07:58.334Z,2.80
2022-12-03T18:10:25.498Z,2.80
2022-12-03T18:12:56.961Z,2.80
2022-12-03T18:15:27.120Z,2.80
2022-12-03T18:17:54.239Z,2.80
2022-12-03T18:20:21.311Z,2.90
2022-12-03T18:22:48.401Z,2.90
2022-12-03T18:25:15.590Z,2.90
2022-12-03T18:27:42.598Z,2.90
2022-12-03T18:30:10.296Z,2.80
2022-12-03T18:32:37.328Z,2.80
2022-12-03T18:35:04.838Z,2.80
2022-12-03T18:37:32.456Z,2.80
2022-12-03T18:40:00.605Z,2.80
2022-12-03T18:42:27.652Z,2.80
2022-12-03T18:44:56.248Z,2.70
2022-12-03T18:47:29.079Z,2.70
2022-12-03T18:49:56.704Z,2.70
2022-12-03T18:52:25.225Z,2.70
2022-12-03T18:54:52.767Z,2.70
2022-12-03T18:57:19.820Z,2.70
2022-12-03T18:59:47.094Z,2.70
2022-12-03T19:05:08.853Z,2.70
2022-12-03T19:07:36.025Z,2.60
2022-12-03T19:10:03.256Z,2.60
2022-12-03T19:12:31.215Z,2.60
2022-12-03T19:14:58.864Z,2.60
2022-12-03T19:17:27.308Z,2.60
2022-12-03T19:19:54.990Z,2.60
2022-12-03T19:22:22.424Z,2.60
2022-12-03T19:24:49.556Z,2.60
2022-12-03T19:27:16.607Z,2.50
2022-12-03T19:29:43.782Z,2.60
2022-12-03T19:32:10.754Z,2.60
2022-12-03T19:34:38.215Z,2.60
2022-12-03T19:37:05.267Z,2.60
2022-12-03T19:39:33.316Z,2.60
2022-12-03T19:42:00.394Z,2.70
2022-12-03T19:44:27.519Z,2.60
2022-12-03T19:46:54.552Z,2.50
2022-12-03T19:49:21.570Z,2.50
2022-12-03T19:51:49.088Z,2.50
2022-12-03T19:54:17.103Z,2.60
2022-12-03T19:56:44.471Z,2.60
2022-12-03T19:59:13.240Z,2.50
2022-12-03T20:01:40.992Z,2.50
2022-12-03T20:04:08.304Z,2.50
2022-12-03T20:06:37.742Z,2.50
2022-12-03T20:09:15.460Z,2.50
2022-12-03T20:11:44.615Z,2.50
2022-12-03T20:14:15.294Z,2.50
2022-12-03T20:16:42.885Z,2.50
2022-12-03T20:19:12.767Z,2.50
2022-12-03T20:21:40.449Z,2.60
2022-12-03T20:24:08.927Z,2.50
2022-12-03T20:26:36.046Z,2.60
2022-12-03T20:29:03.183Z,2.60
2022-12-03T20:31:31.963Z,2.50
2022-12-03T20:34:02.608Z,2.50
2022-12-03T20:36:31.646Z,2.60
2022-12-03T20:39:04.940Z,2.60
2022-12-03T20:41:35.010Z,2.60
2022-12-03T20:44:03.244Z,2.60
2022-12-03T20:46:31.641Z,2.60
2022-12-03T20:48:59.471Z,2.60
2022-12-03T20:51:30.284Z,2.60
2022-12-03T20:53:59.278Z,2.60
2022-12-03T20:56:31.391Z,2.60
2022-12-03T20:59:07.626Z,2.70
2022-12-03T21:01:36.405Z,2.70
2022-12-03T21:04:04.867Z,2.70
2022-12-03T21:06:34.385Z,2.70
2022-12-03T21:09:02.053Z,2.60
2022-12-03T21:11:31.656Z,2.70
2022-12-03T21:13:59.650Z,2.70
2022-12-03T21:17:06.730Z,2.60
2022-12-03T21:19:21.019Z,2.60
2022-12-03T21:21:48.663Z,2.60
2022-12-03T21:24:15.815Z,2.60
2022-12-03T21:26:43.181Z,2.70
2022-12-03T21:29:10.324Z,2.70
2022-12-03T21:31:38.453Z,2.70
2022-12-03T21:34:05.908Z,2.60
2022-12-03T21:36:32.913Z,2.70
2022-12-03T21:39:00.492Z,2.70
2022-12-03T21:41:27.565Z,2.70
2022-12-03T21:43:54.643Z,2.70
2022-12-03T21:47:12.137Z,2.70
2022-12-03T21:49:14.599Z,2.70
2022-12-03T21:51:41.817Z,2.70
2022-12-03T21:54:08.859Z,2.70
2022-12-03T21:56:35.968Z,2.70
2022-12-03T21:59:02.942Z,2.60
2022-12-03T22:01:30.320Z,2.70
2022-12-03T22:03:57.692Z,2.70
2022-12-03T22:06:24.811Z,2.80
2022-12-03T22:08:51.805Z,2.70
2022-12-03T22:11:22.494Z,2.70
2022-12-03T22:13:49.920Z,2.80
2022-12-03T22:16:19.746Z,2.70
2022-12-03T22:18:47.649Z,2.70
2022-12-03T22:21:17.354Z,2.70
2022-12-03T22:23:44.870Z,2.70
2022-12-03T22:26:14.591Z,2.80
2022-12-03T22:28:46.034Z,2.80
2022-12-03T22:31:13.922Z,2.70
2022-12-03T22:33:42.071Z,2.70
2022-12-03T22:36:19.668Z,2.70
2022-12-03T22:38:47.631Z,2.80
2022-12-03T22:41:15.825Z,2.80
2022-12-03T22:43:43.182Z,2.80
2022-12-03T22:46:13.352Z,2.70
2022-12-03T22:48:45.408Z,2.70
2022-12-03T22:51:24.479Z,2.70
2022-12-03T22:53:56.466Z,2.70
2022-12-03T22:56:23.880Z,2.70
2022-12-03T22:58:51.273Z,2.70
2022-12-03T23:01:30.359Z,2.70
2022-12-03T23:03:58.205Z,2.70
2022-12-03T23:06:25.416Z,2.70
2022-12-03T23:08:52.518Z,2.70
2022-12-03T23:11:20.237Z,2.70
2022-12-03T23:13:48.022Z,2.70
2022-12-03T23:16:18.819Z,2.70
2022-12-03T23:18:46.238Z,2.70
2022-12-03T23:21:20.731Z,2.70
2022-12-03T23:23:51.143Z,2.70
2022-12-03T23:26:18.566Z,2.70
2022-12-03T23:28:46.707Z,2.70
2022-12-03T23:31:32.757Z,2.70
2022-12-03T23:34:00.760Z,2.70
2022-12-03T23:36:30.026Z,2.70
2022-12-03T23:38:57.140Z,2.80
2022-12-03T23:41:24.795Z,2.80
2022-12-03T23:43:52.461Z,2.80
2022-12-03T23:46:22.635Z,2.80
2022-12-03T23:48:50.176Z,2.80
2022-12-03T23:51:20.735Z,2.70
2022-12-03T23:53:48.102Z,2.80
2022-12-03T23:56:25.045Z,2.80
2022-12-03T23:58:52.086Z,2.80
